Thunderstorms From: 21-05-2018 15:00 Until: 22-05-2018 15:00 warning for: Thunderstorms Level: Yellow info button

Although rather usual in this region, locally or potentially dangerous phenomena are expected. (such as local winds, summer thunderstorms, rising streams or high waves) Be aware and pay attention to the latest weather updates, especially if you carry out activities exposed to weather or close to a stream or shoreline. 


Meteo18 Weather Cam more information Meteo18 Weather Cam


warning for Thunderstorms more information blitzortung!


Rain radar more information rain snow radar


Visit our other weather sites:

Template documentation
and downloads

And another site



Weather Underground History page Text

Daily Summary for March 26, 2017 Units:  Both    English   Metric
« Previous Day
Next Day »
Daily Weekly Monthly Yearly Custom
  High: Low: Average:
Temperature: TemperatureC °F /  -17.8 °C 8.7 °F /  -12.9 °C 12.3 °F /  -10.9 °C
Dew Point: DewpointC °F /  -17.8 °C 4.6 °F /  -15.2 °C 6.1 °F /  -14.4 °C
Humidity: Humidity % 44 % 67 %
Wind Speed: WindSpeedKMH mph /  0 km/h - 1.8 mph /  2.9 km/h
Wind Gust: WindSpeedGustKMH mph /  0 km/h - -
Wind:- - ESE
Pressure: PressurehPa in /  0 hPa 1017.8 in /  34462.7 hPa -
Precipitation: 0.0 in /  0 mm    
Historical Graphs
 
 
Tabular Data for March 26, 2017
Time Temperature Dew Point Pressure Wind Wind Speed Wind Gust Humidity Rainfall Rate (Hourly)
TemperatureC °F /  -17.8 °C DewpointC °F /  -17.8 °C PressurehPa in /  0 hPa Calm     Humidity % HourlyPrecipMM in /  0 mm
00:02 10.3 °F /  -12.1 °C 7.5 °F /  -13.6 °C 1017.8 in /  34462.7 hPa Calm   1.6 mph /  2.6 km/h 83 % 0.0 in /  0 mm
00:07 10.3 °F /  -12.1 °C 7.4 °F /  -13.7 °C 1017.8 in /  34462.7 hPa East 4.8 mph /  7.7 km/h 4.8 mph /  7.7 km/h 82 % 0.0 in /  0 mm
00:12 10.5 °F /  -11.9 °C 7.6 °F /  -13.6 °C 1017.8 in /  34462.7 hPa ESE 1.6 mph /  2.6 km/h 3.2 mph /  5.1 km/h 82 % 0.0 in /  0 mm
00:17 10.6 °F /  -11.9 °C 7.5 °F /  -13.6 °C 1017.8 in /  34462.7 hPa Calm   4.8 mph /  7.7 km/h 81 % 0.0 in /  0 mm
00:22 10.6 °F /  -11.9 °C 7.5 °F /  -13.6 °C 1017.8 in /  34462.7 hPa Calm   4.8 mph /  7.7 km/h 81 % 0.0 in /  0 mm
00:27 10.6 °F /  -11.9 °C 7.5 °F /  -13.6 °C 1018.2 in /  34476.3 hPa East 1.6 mph /  2.6 km/h 4.8 mph /  7.7 km/h 81 % 0.0 in /  0 mm
00:37 10.7 °F /  -11.8 °C 7.2 °F /  -13.8 °C 1017.8 in /  34462.7 hPa ESE 1.6 mph /  2.6 km/h 4.8 mph /  7.7 km/h 79 % 0.0 in /  0 mm
00:42 10.7 °F /  -11.8 °C 7.0 °F /  -13.9 °C 1018.2 in /  34476.3 hPa East 1.6 mph /  2.6 km/h 4.8 mph /  7.7 km/h 78 % 0.0 in /  0 mm
00:47 10.7 °F /  -11.8 °C 7.0 °F /  -13.9 °C 1018.2 in /  34476.3 hPa East 1.6 mph /  2.6 km/h 6.4 mph /  10.3 km/h 78 % 0.0 in /  0 mm
00:57 10.6 °F /  -11.9 °C 6.9 °F /  -13.9 °C 1017.8 in /  34462.7 hPa Calm   6.4 mph /  10.3 km/h 78 % 0.0 in /  0 mm
01:02 10.5 °F /  -11.9 °C 7.0 °F /  -13.9 °C 1017.8 in /  34462.7 hPa Calm   4.8 mph /  7.7 km/h 79 % 0.0 in /  0 mm
01:12 10.3 °F /  -12.1 °C 6.8 °F /  -14 °C 1017.8 in /  34462.7 hPa Calm   3.2 mph /  5.1 km/h 79 % 0.0 in /  0 mm
01:17 10.3 °F /  -12.1 °C 6.8 °F /  -14 °C 1017.8 in /  34462.7 hPa East 1.6 mph /  2.6 km/h 1.6 mph /  2.6 km/h 79 % 0.0 in /  0 mm
01:22 10.3 °F /  -12.1 °C 6.8 °F /  -14 °C 1018.2 in /  34476.3 hPa Calm   6.4 mph /  10.3 km/h 79 % 0.0 in /  0 mm
01:32 10.2 °F /  -12.1 °C 6.7 °F /  -14.1 °C 1018.2 in /  34476.3 hPa Calm   6.4 mph /  10.3 km/h 79 % 0.0 in /  0 mm
01:42 9.9 °F /  -12.3 °C 6.4 °F /  -14.2 °C 1018.2 in /  34476.3 hPa Calm   6.4 mph /  10.3 km/h 79 % 0.0 in /  0 mm
01:52 9.7 °F /  -12.4 °C 6.6 °F /  -14.1 °C 1018.2 in /  34476.3 hPa Calm   6.4 mph /  10.3 km/h 81 % 0.0 in /  0 mm
01:57 9.6 °F /  -12.4 °C 6.5 °F /  -14.2 °C 1018.2 in /  34476.3 hPa Calm   6.4 mph /  10.3 km/h 81 % 0.0 in /  0 mm
03:02 9.6 °F /  -12.4 °C 6.5 °F /  -14.2 °C 1018.2 in /  34476.3 hPa Calm   4.8 mph /  7.7 km/h 81 % 0.0 in /  0 mm
03:12 9.3 °F /  -12.6 °C 6.4 °F /  -14.2 °C 1018.2 in /  34476.3 hPa Calm   3.2 mph /  5.1 km/h 82 % 0.0 in /  0 mm
03:17 9.2 °F /  -12.7 °C 6.3 °F /  -14.3 °C 1018.2 in /  34476.3 hPa Calm   3.2 mph /  5.1 km/h 82 % 0.0 in /  0 mm
03:22 9.2 °F /  -12.7 °C 6.3 °F /  -14.3 °C 1018.2 in /  34476.3 hPa Calm   1.6 mph /  2.6 km/h 82 % 0.0 in /  0 mm
03:32 9.1 °F /  -12.7 °C 6.4 °F /  -14.2 °C 1018.2 in /  34476.3 hPa Calm   3.2 mph /  5.1 km/h 83 % 0.0 in /  0 mm
03:37 9.1 °F /  -12.7 °C 6.4 °F /  -14.2 °C 1018.2 in /  34476.3 hPa Calm   3.2 mph /  5.1 km/h 83 % 0.0 in /  0 mm
03:42 9.1 °F /  -12.7 °C 6.2 °F /  -14.3 °C 1018.2 in /  34476.3 hPa Calm   3.2 mph /  5.1 km/h 82 % 0.0 in /  0 mm
03:47 9.1 °F /  -12.7 °C 6.2 °F /  -14.3 °C 1018.2 in /  34476.3 hPa Calm   1.6 mph /  2.6 km/h 82 % 0.0 in /  0 mm
03:52 9.2 °F /  -12.7 °C 6.3 °F /  -14.3 °C 1018.5 in /  34486.4 hPa Calm   1.6 mph /  2.6 km/h 82 % 0.0 in /  0 mm
03:57 9.1 °F /  -12.7 °C 6.2 °F /  -14.3 °C 1018.5 in /  34486.4 hPa Calm   1.6 mph /  2.6 km/h 82 % 0.0 in /  0 mm
04:02 9.1 °F /  -12.7 °C 6.2 °F /  -14.3 °C 1018.5 in /  34486.4 hPa Calm   1.6 mph /  2.6 km/h 82 % 0.0 in /  0 mm
04:12 9.0 °F /  -12.8 °C 6.1 °F /  -14.4 °C 1018.5 in /  34486.4 hPa Calm     82 % 0.0 in /  0 mm
04:17 9.1 °F /  -12.7 °C 6.2 °F /  -14.3 °C 1018.5 in /  34486.4 hPa Calm     82 % 0.0 in /  0 mm
04:22 9.1 °F /  -12.7 °C 6.2 °F /  -14.3 °C 1018.5 in /  34486.4 hPa Calm     82 % 0.0 in /  0 mm
04:27 9.0 °F /  -12.8 °C 6.1 °F /  -14.4 °C 1018.5 in /  34486.4 hPa Calm     82 % 0.0 in /  0 mm
04:32 9.0 °F /  -12.8 °C 6.1 °F /  -14.4 °C 1018.5 in /  34486.4 hPa Calm     82 % 0.0 in /  0 mm
04:42 9.0 °F /  -12.8 °C 6.3 °F /  -14.3 °C 1018.5 in /  34486.4 hPa Calm     83 % 0.0 in /  0 mm
04:52 9.1 °F /  -12.7 °C 6.2 °F /  -14.3 °C 1018.5 in /  34486.4 hPa Calm   1.6 mph /  2.6 km/h 82 % 0.0 in /  0 mm
04:57 9.1 °F /  -12.7 °C 6.2 °F /  -14.3 °C 1018.5 in /  34486.4 hPa Calm   1.6 mph /  2.6 km/h 82 % 0.0 in /  0 mm
05:02 9.1 °F /  -12.7 °C 6.2 °F /  -14.3 °C 1018.5 in /  34486.4 hPa Calm   1.6 mph /  2.6 km/h 82 % 0.0 in /  0 mm
05:12 9.1 °F /  -12.7 °C 6.4 °F /  -14.2 °C 1018.5 in /  34486.4 hPa Calm   1.6 mph /  2.6 km/h 83 % 0.0 in /  0 mm
05:22 8.9 °F /  -12.8 °C 6.2 °F /  -14.3 °C 1018.5 in /  34486.4 hPa Calm     83 % 0.0 in /  0 mm
05:27 8.8 °F /  -12.9 °C 6.1 °F /  -14.4 °C 1018.2 in /  34476.3 hPa Calm     83 % 0.0 in /  0 mm
05:32 8.9 °F /  -12.8 °C 6.2 °F /  -14.3 °C 1018.5 in /  34486.4 hPa Calm     83 % 0.0 in /  0 mm
05:42 8.9 °F /  -12.8 °C 6.2 °F /  -14.3 °C 1018.2 in /  34476.3 hPa Calm     83 % 0.0 in /  0 mm
05:47 8.9 °F /  -12.8 °C 6.2 °F /  -14.3 °C 1018.2 in /  34476.3 hPa East 1.6 mph /  2.6 km/h   83 % 0.0 in /  0 mm
05:52 8.9 °F /  -12.8 °C 6.2 °F /  -14.3 °C 1018.2 in /  34476.3 hPa Calm   1.6 mph /  2.6 km/h 83 % 0.0 in /  0 mm
06:02 8.9 °F /  -12.8 °C 6.2 °F /  -14.3 °C 1018.2 in /  34476.3 hPa Calm   1.6 mph /  2.6 km/h 83 % 0.0 in /  0 mm
06:12 8.9 °F /  -12.8 °C 6.0 °F /  -14.4 °C 1018.2 in /  34476.3 hPa Calm   1.6 mph /  2.6 km/h 82 % 0.0 in /  0 mm
06:17 8.9 °F /  -12.8 °C 6.0 °F /  -14.4 °C 1018.2 in /  34476.3 hPa Calm   1.6 mph /  2.6 km/h 82 % 0.0 in /  0 mm
06:22 8.9 °F /  -12.8 °C 6.0 °F /  -14.4 °C 1018.2 in /  34476.3 hPa Calm     82 % 0.0 in /  0 mm
06:32 8.9 °F /  -12.8 °C 6.0 °F /  -14.4 °C 1018.2 in /  34476.3 hPa Calm     82 % 0.0 in /  0 mm
06:37 8.9 °F /  -12.8 °C 6.0 °F /  -14.4 °C 1018.2 in /  34476.3 hPa Calm     82 % 0.0 in /  0 mm
06:42 8.8 °F /  -12.9 °C 5.9 °F /  -14.5 °C 1018.2 in /  34476.3 hPa Calm     82 % 0.0 in /  0 mm
06:47 8.9 °F /  -12.8 °C 6.0 °F /  -14.4 °C 1018.2 in /  34476.3 hPa Calm     82 % 0.0 in /  0 mm
06:52 8.9 °F /  -12.8 °C 6.0 °F /  -14.4 °C 1018.2 in /  34476.3 hPa Calm     82 % 0.0 in /  0 mm
07:02 8.8 °F /  -12.9 °C 5.9 °F /  -14.5 °C 1018.2 in /  34476.3 hPa Calm     82 % 0.0 in /  0 mm
07:12 8.8 °F /  -12.9 °C 6.1 °F /  -14.4 °C 1018.5 in /  34486.4 hPa Calm     83 % 0.0 in /  0 mm
07:17 8.7 °F /  -12.9 °C 6.0 °F /  -14.4 °C 1018.5 in /  34486.4 hPa Calm     83 % 0.0 in /  0 mm
07:22 8.7 °F /  -12.9 °C 6.0 °F /  -14.4 °C 1018.5 in /  34486.4 hPa Calm     83 % 0.0 in /  0 mm
07:32 8.7 °F /  -12.9 °C 5.8 °F /  -14.6 °C 1018.5 in /  34486.4 hPa Calm     82 % 0.0 in /  0 mm
07:37 8.7 °F /  -12.9 °C 5.8 °F /  -14.6 °C 1018.5 in /  34486.4 hPa Calm     82 % 0.0 in /  0 mm
07:42 8.8 °F /  -12.9 °C 5.9 °F /  -14.5 °C 1018.8 in /  34496.6 hPa Calm     82 % 0.0 in /  0 mm
07:47 8.8 °F /  -12.9 °C 5.7 °F /  -14.6 °C 1018.8 in /  34496.6 hPa Calm     81 % 0.0 in /  0 mm
07:52 8.8 °F /  -12.9 °C 5.9 °F /  -14.5 °C 1018.8 in /  34496.6 hPa Calm     82 % 0.0 in /  0 mm
08:02 8.7 °F /  -12.9 °C 6.0 °F /  -14.4 °C 1018.8 in /  34496.6 hPa Calm     83 % 0.0 in /  0 mm
08:12 8.8 °F /  -12.9 °C 5.9 °F /  -14.5 °C 1019.2 in /  34510.1 hPa Calm     82 % 0.0 in /  0 mm
08:17 8.7 °F /  -12.9 °C 6.1 °F /  -14.4 °C 1019.2 in /  34510.1 hPa Calm     84 % 0.0 in /  0 mm
08:22 8.7 °F /  -12.9 °C 6.1 °F /  -14.4 °C 1019.2 in /  34510.1 hPa Calm     84 % 0.0 in /  0 mm
08:32 8.8 °F /  -12.9 °C 6.1 °F /  -14.4 °C 1019.2 in /  34510.1 hPa Calm     83 % 0.0 in /  0 mm
08:37 8.9 °F /  -12.8 °C 6.3 °F /  -14.3 °C 1019.2 in /  34510.1 hPa Calm     84 % 0.0 in /  0 mm
08:42 8.9 °F /  -12.8 °C 6.7 °F /  -14.1 °C 1019.5 in /  34520.3 hPa Calm     86 % 0.0 in /  0 mm
08:52 8.9 °F /  -12.8 °C 6.5 °F /  -14.2 °C 1019.5 in /  34520.3 hPa Calm     85 % 0.0 in /  0 mm
09:02 9.2 °F /  -12.7 °C 6.5 °F /  -14.2 °C 1019.9 in /  34533.8 hPa Calm     83 % 0.0 in /  0 mm
09:07 9.3 °F /  -12.6 °C 6.6 °F /  -14.1 °C 1019.9 in /  34533.8 hPa Calm     83 % 0.0 in /  0 mm
09:12 9.3 °F /  -12.6 °C 6.6 °F /  -14.1 °C 1019.9 in /  34533.8 hPa Calm     83 % 0.0 in /  0 mm
09:17 9.4 °F /  -12.6 °C 6.5 °F /  -14.2 °C 1019.9 in /  34533.8 hPa Calm     82 % 0.0 in /  0 mm
09:22 9.6 °F /  -12.4 °C 6.5 °F /  -14.2 °C 1019.9 in /  34533.8 hPa Calm     81 % 0.0 in /  0 mm
09:32 9.7 °F /  -12.4 °C 6.4 °F /  -14.2 °C 1019.9 in /  34533.8 hPa Calm     80 % 0.0 in /  0 mm
09:42 9.9 °F /  -12.3 °C 6.4 °F /  -14.2 °C 1019.9 in /  34533.8 hPa Calm   3.2 mph /  5.1 km/h 79 % 0.0 in /  0 mm
09:47 10.0 °F /  -12.2 °C 6.7 °F /  -14.1 °C 1019.9 in /  34533.8 hPa Calm   3.2 mph /  5.1 km/h 80 % 0.0 in /  0 mm
09:52 10.0 °F /  -12.2 °C 6.5 °F /  -14.2 °C 1020.2 in /  34544 hPa Calm   3.2 mph /  5.1 km/h 79 % 0.0 in /  0 mm
09:57 10.1 °F /  -12.2 °C 6.6 °F /  -14.1 °C 1020.2 in /  34544 hPa Calm   1.6 mph /  2.6 km/h 79 % 0.0 in /  0 mm
10:02 10.2 °F /  -12.1 °C 6.7 °F /  -14.1 °C 1020.2 in /  34544 hPa Calm   1.6 mph /  2.6 km/h 79 % 0.0 in /  0 mm
10:07 10.2 °F /  -12.1 °C 6.3 °F /  -14.3 °C 1020.2 in /  34544 hPa Calm   1.6 mph /  2.6 km/h 77 % 0.0 in /  0 mm
10:12 10.3 °F /  -12.1 °C 6.4 °F /  -14.2 °C 1020.2 in /  34544 hPa Calm   1.6 mph /  2.6 km/h 77 % 0.0 in /  0 mm
10:22 10.3 °F /  -12.1 °C 6.1 °F /  -14.4 °C 1020.2 in /  34544 hPa SSE 4.8 mph /  7.7 km/h 4.8 mph /  7.7 km/h 75 % 0.0 in /  0 mm
10:27 10.3 °F /  -12.1 °C 5.9 °F /  -14.5 °C 1020.2 in /  34544 hPa South 4.8 mph /  7.7 km/h 6.4 mph /  10.3 km/h 74 % 0.0 in /  0 mm
10:32 10.3 °F /  -12.1 °C 6.3 °F /  -14.3 °C 1020.2 in /  34544 hPa South 3.2 mph /  5.1 km/h 6.4 mph /  10.3 km/h 76 % 0.0 in /  0 mm
10:37 10.3 °F /  -12.1 °C 6.1 °F /  -14.4 °C 1020.5 in /  34554.1 hPa SSE 3.2 mph /  5.1 km/h 8.0 mph /  12.9 km/h 75 % 0.0 in /  0 mm
10:42 10.4 °F /  -12 °C 6.5 °F /  -14.2 °C 1020.5 in /  34554.1 hPa South 1.6 mph /  2.6 km/h 8.0 mph /  12.9 km/h 77 % 0.0 in /  0 mm
10:47 10.5 °F /  -11.9 °C 6.4 °F /  -14.2 °C 1020.5 in /  34554.1 hPa South 4.8 mph /  7.7 km/h 8.0 mph /  12.9 km/h 76 % 0.0 in /  0 mm
10:52 10.5 °F /  -11.9 °C 6.3 °F /  -14.3 °C 1020.5 in /  34554.1 hPa South 3.2 mph /  5.1 km/h 8.0 mph /  12.9 km/h 75 % 0.0 in /  0 mm
10:57 10.4 °F /  -12 °C 6.0 °F /  -14.4 °C 1020.5 in /  34554.1 hPa South 4.8 mph /  7.7 km/h 8.0 mph /  12.9 km/h 74 % 0.0 in /  0 mm
11:02 10.5 °F /  -11.9 °C 6.3 °F /  -14.3 °C 1020.5 in /  34554.1 hPa SSE 3.2 mph /  5.1 km/h 8.0 mph /  12.9 km/h 75 % 0.0 in /  0 mm
11:12 10.7 °F /  -11.8 °C 6.4 °F /  -14.2 °C 1020.5 in /  34554.1 hPa SSE 1.6 mph /  2.6 km/h 8.0 mph /  12.9 km/h 75 % 0.0 in /  0 mm
11:17 10.8 °F /  -11.8 °C 6.7 °F /  -14.1 °C 1020.5 in /  34554.1 hPa South 1.6 mph /  2.6 km/h 8.0 mph /  12.9 km/h 76 % 0.0 in /  0 mm
11:22 10.9 °F /  -11.7 °C 6.4 °F /  -14.2 °C 1020.9 in /  34567.7 hPa ESE 1.6 mph /  2.6 km/h 8.0 mph /  12.9 km/h 74 % 0.0 in /  0 mm
11:32 11.3 °F /  -11.5 °C 6.4 °F /  -14.2 °C 1020.9 in /  34567.7 hPa SE 6.4 mph /  10.3 km/h 8.0 mph /  12.9 km/h 72 % 0.0 in /  0 mm
11:37 11.4 °F /  -11.4 °C 6.9 °F /  -13.9 °C 1020.9 in /  34567.7 hPa SE 1.6 mph /  2.6 km/h 8.0 mph /  12.9 km/h 74 % 0.0 in /  0 mm
11:42 11.6 °F /  -11.3 °C 6.7 °F /  -14.1 °C 1020.9 in /  34567.7 hPa SE 3.2 mph /  5.1 km/h 8.0 mph /  12.9 km/h 72 % 0.0 in /  0 mm
11:47 11.7 °F /  -11.3 °C 6.8 °F /  -14 °C 1020.9 in /  34567.7 hPa SSE 3.2 mph /  5.1 km/h 8.0 mph /  12.9 km/h 72 % 0.0 in /  0 mm
11:52 11.9 °F /  -11.2 °C 6.8 °F /  -14 °C 1020.9 in /  34567.7 hPa SSE 3.2 mph /  5.1 km/h 8.0 mph /  12.9 km/h 71 % 0.0 in /  0 mm
12:02 12.4 °F /  -10.9 °C 7.1 °F /  -13.8 °C 1020.9 in /  34567.7 hPa SSW 1.6 mph /  2.6 km/h 6.4 mph /  10.3 km/h 70 % 0.0 in /  0 mm
12:12 12.9 °F /  -10.6 °C 6.9 °F /  -13.9 °C 1020.9 in /  34567.7 hPa SSE 1.6 mph /  2.6 km/h 6.4 mph /  10.3 km/h 67 % 0.0 in /  0 mm
12:17 13.2 °F /  -10.4 °C 7.4 °F /  -13.7 °C 1020.9 in /  34567.7 hPa SSW 3.2 mph /  5.1 km/h 6.4 mph /  10.3 km/h 68 % 0.0 in /  0 mm
12:22 13.3 °F /  -10.4 °C 6.9 °F /  -13.9 °C 1020.9 in /  34567.7 hPa Calm   6.4 mph /  10.3 km/h 65 % 0.0 in /  0 mm
12:27 13.4 °F /  -10.3 °C 7.0 °F /  -13.9 °C 1020.9 in /  34567.7 hPa SE 1.6 mph /  2.6 km/h 6.4 mph /  10.3 km/h 65 % 0.0 in /  0 mm
12:32 13.8 °F /  -10.1 °C 6.9 °F /  -13.9 °C 1020.9 in /  34567.7 hPa Calm   6.4 mph /  10.3 km/h 63 % 0.0 in /  0 mm
12:37 13.9 °F /  -10.1 °C 6.7 °F /  -14.1 °C 1020.9 in /  34567.7 hPa WSW 4.8 mph /  7.7 km/h 6.4 mph /  10.3 km/h 62 % 0.0 in /  0 mm
12:42 13.9 °F /  -10.1 °C 7.2 °F /  -13.8 °C 1020.9 in /  34567.7 hPa ENE 4.8 mph /  7.7 km/h 6.4 mph /  10.3 km/h 64 % 0.0 in /  0 mm
12:47 13.8 °F /  -10.1 °C 7.1 °F /  -13.8 °C 1020.9 in /  34567.7 hPa Calm   6.4 mph /  10.3 km/h 64 % 0.0 in /  0 mm
12:52 14.0 °F /  -10 °C 6.8 °F /  -14 °C 1020.9 in /  34567.7 hPa Calm   6.4 mph /  10.3 km/h 62 % 0.0 in /  0 mm
12:57 14.4 °F /  -9.8 °C 7.7 °F /  -13.5 °C 1020.9 in /  34567.7 hPa NNE 1.6 mph /  2.6 km/h 8.0 mph /  12.9 km/h 64 % 0.0 in /  0 mm
13:02 14.4 °F /  -9.8 °C 7.0 °F /  -13.9 °C 1020.9 in /  34567.7 hPa Calm   8.0 mph /  12.9 km/h 61 % 0.0 in /  0 mm
13:12 14.9 °F /  -9.5 °C 5.7 °F /  -14.6 °C 1020.9 in /  34567.7 hPa ESE 3.2 mph /  5.1 km/h 4.8 mph /  7.7 km/h 54 % 0.0 in /  0 mm
13:17 15.0 °F /  -9.4 °C 5.2 °F /  -14.9 °C 1020.5 in /  34554.1 hPa Calm   4.8 mph /  7.7 km/h 52 % 0.0 in /  0 mm
13:22 15.3 °F /  -9.3 °C 6.3 °F /  -14.3 °C 1020.5 in /  34554.1 hPa NE 1.6 mph /  2.6 km/h 4.8 mph /  7.7 km/h 55 % 0.0 in /  0 mm
13:32 14.9 °F /  -9.5 °C 5.7 °F /  -14.6 °C 1020.5 in /  34554.1 hPa ENE 6.4 mph /  10.3 km/h 12.9 mph /  20.8 km/h 54 % 0.0 in /  0 mm
13:37 14.9 °F /  -9.5 °C 6.2 °F /  -14.3 °C 1020.5 in /  34554.1 hPa NNE 6.4 mph /  10.3 km/h 16.1 mph /  25.9 km/h 56 % 0.0 in /  0 mm
13:42 14.8 °F /  -9.6 °C 5.6 °F /  -14.7 °C 1020.5 in /  34554.1 hPa NE 4.8 mph /  7.7 km/h 16.1 mph /  25.9 km/h 54 % 0.0 in /  0 mm
13:47 14.9 °F /  -9.5 °C 5.9 °F /  -14.5 °C 1020.5 in /  34554.1 hPa East 3.2 mph /  5.1 km/h 19.3 mph /  31.1 km/h 55 % 0.0 in /  0 mm
13:52 15.2 °F /  -9.3 °C 6.5 °F /  -14.2 °C 1020.5 in /  34554.1 hPa ENE 6.4 mph /  10.3 km/h 19.3 mph /  31.1 km/h 56 % 0.0 in /  0 mm
13:57 15.2 °F /  -9.3 °C 6.5 °F /  -14.2 °C 1020.5 in /  34554.1 hPa ENE 11.3 mph /  18.2 km/h 19.3 mph /  31.1 km/h 56 % 0.0 in /  0 mm
14:02 15.1 °F /  -9.4 °C 5.6 °F /  -14.7 °C 1020.5 in /  34554.1 hPa ENE 14.5 mph /  23.3 km/h 19.3 mph /  31.1 km/h 53 % 0.0 in /  0 mm
14:12 15.2 °F /  -9.3 °C 5.1 °F /  -14.9 °C 1020.2 in /  34544 hPa ENE 4.8 mph /  7.7 km/h 19.3 mph /  31.1 km/h 51 % 0.0 in /  0 mm
14:17 15.3 °F /  -9.3 °C 5.5 °F /  -14.7 °C 1020.2 in /  34544 hPa NE 4.8 mph /  7.7 km/h 16.1 mph /  25.9 km/h 52 % 0.0 in /  0 mm
14:22 15.3 °F /  -9.3 °C 5.5 °F /  -14.7 °C 1020.2 in /  34544 hPa ESE 4.8 mph /  7.7 km/h 16.1 mph /  25.9 km/h 52 % 0.0 in /  0 mm
14:32 15.6 °F /  -9.1 °C 5.2 °F /  -14.9 °C 1020.2 in /  34544 hPa East 11.3 mph /  18.2 km/h 11.3 mph /  18.2 km/h 50 % 0.0 in /  0 mm
14:37 15.6 °F /  -9.1 °C 5.5 °F /  -14.7 °C 1020.2 in /  34544 hPa ESE 3.2 mph /  5.1 km/h 14.5 mph /  23.3 km/h 51 % 0.0 in /  0 mm
14:42 15.9 °F /  -8.9 °C 4.6 °F /  -15.2 °C 1020.2 in /  34544 hPa SSW 3.2 mph /  5.1 km/h 14.5 mph /  23.3 km/h 47 % 0.0 in /  0 mm
14:47 15.9 °F /  -8.9 °C 4.6 °F /  -15.2 °C 1020.2 in /  34544 hPa ESE 1.6 mph /  2.6 km/h 14.5 mph /  23.3 km/h 47 % 0.0 in /  0 mm
14:52 15.9 °F /  -8.9 °C 4.6 °F /  -15.2 °C 1020.2 in /  34544 hPa Calm   12.9 mph /  20.8 km/h 47 % 0.0 in /  0 mm
14:57 16.2 °F /  -8.8 °C 5.8 °F /  -14.6 °C 1019.9 in /  34533.8 hPa SE 1.6 mph /  2.6 km/h 11.3 mph /  18.2 km/h 50 % 0.0 in /  0 mm
15:02 16.3 °F /  -8.7 °C 5.0 °F /  -15 °C 1019.9 in /  34533.8 hPa Calm   11.3 mph /  18.2 km/h 47 % 0.0 in /  0 mm
15:12 16.6 °F /  -8.6 °C 5.8 °F /  -14.6 °C 1019.9 in /  34533.8 hPa SSW 4.8 mph /  7.7 km/h 9.7 mph /  15.6 km/h 49 % 0.0 in /  0 mm
15:17 16.6 °F /  -8.6 °C 5.5 °F /  -14.7 °C 1019.9 in /  34533.8 hPa Calm   11.3 mph /  18.2 km/h 48 % 0.0 in /  0 mm
15:22 16.9 °F /  -8.4 °C 5.5 °F /  -14.7 °C 1019.9 in /  34533.8 hPa SSW 4.8 mph /  7.7 km/h 11.3 mph /  18.2 km/h 47 % 0.0 in /  0 mm
15:27 16.9 °F /  -8.4 °C 5.5 °F /  -14.7 °C 1019.9 in /  34533.8 hPa Calm   11.3 mph /  18.2 km/h 47 % 0.0 in /  0 mm
15:32 17.3 °F /  -8.2 °C 5.9 °F /  -14.5 °C 1019.9 in /  34533.8 hPa East 1.6 mph /  2.6 km/h 11.3 mph /  18.2 km/h 47 % 0.0 in /  0 mm
15:37 16.9 °F /  -8.4 °C 4.9 °F /  -15.1 °C 1019.9 in /  34533.8 hPa ESE 3.2 mph /  5.1 km/h 8.0 mph /  12.9 km/h 45 % 0.0 in /  0 mm
15:42 16.9 °F /  -8.4 °C 5.5 °F /  -14.7 °C 1019.9 in /  34533.8 hPa ESE 4.8 mph /  7.7 km/h 8.0 mph /  12.9 km/h 47 % 0.0 in /  0 mm
15:52 16.4 °F /  -8.7 °C 5.1 °F /  -14.9 °C 1019.9 in /  34533.8 hPa Calm   16.1 mph /  25.9 km/h 47 % 0.0 in /  0 mm
15:57 16.7 °F /  -8.5 °C 4.7 °F /  -15.2 °C 1019.9 in /  34533.8 hPa ENE 3.2 mph /  5.1 km/h 16.1 mph /  25.9 km/h 45 % 0.0 in /  0 mm
16:02 16.9 °F /  -8.4 °C 5.2 °F /  -14.9 °C 1019.9 in /  34533.8 hPa East 1.6 mph /  2.6 km/h 16.1 mph /  25.9 km/h 46 % 0.0 in /  0 mm
16:12 17.1 °F /  -8.3 °C 5.1 °F /  -14.9 °C 1019.9 in /  34533.8 hPa East 6.4 mph /  10.3 km/h 9.7 mph /  15.6 km/h 45 % 0.0 in /  0 mm
16:17 16.9 °F /  -8.4 °C 4.6 °F /  -15.2 °C 1019.9 in /  34533.8 hPa SSE 1.6 mph /  2.6 km/h 9.7 mph /  15.6 km/h 44 % 0.0 in /  0 mm
16:22 17.2 °F /  -8.2 °C 5.5 °F /  -14.7 °C 1019.9 in /  34533.8 hPa South 1.6 mph /  2.6 km/h 12.9 mph /  20.8 km/h 46 % 0.0 in /  0 mm
16:32 17.2 °F /  -8.2 °C 5.5 °F /  -14.7 °C 1019.9 in /  34533.8 hPa East 9.7 mph /  15.6 km/h 12.9 mph /  20.8 km/h 46 % 0.0 in /  0 mm
16:37 17.1 °F /  -8.3 °C 6.0 °F /  -14.4 °C 1019.9 in /  34533.8 hPa NE 9.7 mph /  15.6 km/h 11.3 mph /  18.2 km/h 48 % 0.0 in /  0 mm
16:42 17.0 °F /  -8.3 °C 5.0 °F /  -15 °C 1019.9 in /  34533.8 hPa East 1.6 mph /  2.6 km/h 11.3 mph /  18.2 km/h 45 % 0.0 in /  0 mm
16:47 17.2 °F /  -8.2 °C 5.5 °F /  -14.7 °C 1019.9 in /  34533.8 hPa NE 1.6 mph /  2.6 km/h 12.9 mph /  20.8 km/h 46 % 0.0 in /  0 mm
16:52 17.0 °F /  -8.3 °C 5.6 °F /  -14.7 °C 1019.9 in /  34533.8 hPa NNE 8.0 mph /  12.9 km/h 12.9 mph /  20.8 km/h 47 % 0.0 in /  0 mm
17:02 16.8 °F /  -8.4 °C 5.7 °F /  -14.6 °C 1019.9 in /  34533.8 hPa ENE 1.6 mph /  2.6 km/h 14.5 mph /  23.3 km/h 48 % 0.0 in /  0 mm
17:07 16.9 °F /  -8.4 °C 5.8 °F /  -14.6 °C 1019.9 in /  34533.8 hPa North 4.8 mph /  7.7 km/h 14.5 mph /  23.3 km/h 48 % 0.0 in /  0 mm
17:12 17.1 °F /  -8.3 °C 6.0 °F /  -14.4 °C 1019.9 in /  34533.8 hPa NNE 11.3 mph /  18.2 km/h 14.5 mph /  23.3 km/h 48 % 0.0 in /  0 mm
17:17 17.1 °F /  -8.3 °C 5.7 °F /  -14.6 °C 1019.9 in /  34533.8 hPa NNW 9.7 mph /  15.6 km/h 12.9 mph /  20.8 km/h 47 % 0.0 in /  0 mm
17:22 16.9 °F /  -8.4 °C 5.2 °F /  -14.9 °C 1019.9 in /  34533.8 hPa ENE 3.2 mph /  5.1 km/h 14.5 mph /  23.3 km/h 46 % 0.0 in /  0 mm
17:32 17.0 °F /  -8.3 °C 5.6 °F /  -14.7 °C 1019.9 in /  34533.8 hPa ENE 3.2 mph /  5.1 km/h 14.5 mph /  23.3 km/h 47 % 0.0 in /  0 mm
17:42 17.0 °F /  -8.3 °C 5.9 °F /  -14.5 °C 1019.9 in /  34533.8 hPa West 1.6 mph /  2.6 km/h 12.9 mph /  20.8 km/h 48 % 0.0 in /  0 mm
17:47 16.8 °F /  -8.4 °C 5.7 °F /  -14.6 °C 1019.9 in /  34533.8 hPa NNE 3.2 mph /  5.1 km/h 12.9 mph /  20.8 km/h 48 % 0.0 in /  0 mm
17:52 16.6 °F /  -8.6 °C 5.5 °F /  -14.7 °C 1019.9 in /  34533.8 hPa Calm   9.7 mph /  15.6 km/h 48 % 0.0 in /  0 mm
17:57 16.6 °F /  -8.6 °C 6.1 °F /  -14.4 °C 1019.9 in /  34533.8 hPa Calm   8.0 mph /  12.9 km/h 50 % 0.0 in /  0 mm
18:02 16.7 °F /  -8.5 °C 5.9 °F /  -14.5 °C 1019.9 in /  34533.8 hPa NE 1.6 mph /  2.6 km/h 8.0 mph /  12.9 km/h 49 % 0.0 in /  0 mm
18:12 16.4 °F /  -8.7 °C 5.9 °F /  -14.5 °C 1019.5 in /  34520.3 hPa East 1.6 mph /  2.6 km/h 6.4 mph /  10.3 km/h 50 % 0.0 in /  0 mm
18:17 16.6 °F /  -8.6 °C 5.5 °F /  -14.7 °C 1019.5 in /  34520.3 hPa Calm   4.8 mph /  7.7 km/h 48 % 0.0 in /  0 mm
18:22 16.8 °F /  -8.4 °C 5.4 °F /  -14.8 °C 1019.5 in /  34520.3 hPa Calm   4.8 mph /  7.7 km/h 47 % 0.0 in /  0 mm
18:32 16.8 °F /  -8.4 °C 5.4 °F /  -14.8 °C 1019.5 in /  34520.3 hPa East 4.8 mph /  7.7 km/h 8.0 mph /  12.9 km/h 47 % 0.0 in /  0 mm
18:37 16.8 °F /  -8.4 °C 5.4 °F /  -14.8 °C 1019.5 in /  34520.3 hPa East 4.8 mph /  7.7 km/h 8.0 mph /  12.9 km/h 47 % 0.0 in /  0 mm
18:42 16.7 °F /  -8.5 °C 5.6 °F /  -14.7 °C 1019.5 in /  34520.3 hPa East 4.8 mph /  7.7 km/h 8.0 mph /  12.9 km/h 48 % 0.0 in /  0 mm
18:52 16.4 °F /  -8.7 °C 5.7 °F /  -14.6 °C 1019.5 in /  34520.3 hPa ENE 3.2 mph /  5.1 km/h 9.7 mph /  15.6 km/h 49 % 0.0 in /  0 mm
18:57 16.5 °F /  -8.6 °C 6.6 °F /  -14.1 °C 1019.5 in /  34520.3 hPa ENE 3.2 mph /  5.1 km/h 8.0 mph /  12.9 km/h 52 % 0.0 in /  0 mm
19:02 16.4 °F /  -8.7 °C 6.2 °F /  -14.3 °C 1019.5 in /  34520.3 hPa ENE 3.2 mph /  5.1 km/h 8.0 mph /  12.9 km/h 51 % 0.0 in /  0 mm
19:07 16.5 °F /  -8.6 °C 6.3 °F /  -14.3 °C 1019.5 in /  34520.3 hPa ENE 1.6 mph /  2.6 km/h 8.0 mph /  12.9 km/h 51 % 0.0 in /  0 mm
19:12 16.4 °F /  -8.7 °C 6.2 °F /  -14.3 °C 1019.2 in /  34510.1 hPa ENE 4.8 mph /  7.7 km/h 8.0 mph /  12.9 km/h 51 % 0.0 in /  0 mm
19:17 16.4 °F /  -8.7 °C 6.5 °F /  -14.2 °C 1019.5 in /  34520.3 hPa ENE 3.2 mph /  5.1 km/h 8.0 mph /  12.9 km/h 52 % 0.0 in /  0 mm
19:22 16.3 °F /  -8.7 °C 6.4 °F /  -14.2 °C 1019.2 in /  34510.1 hPa NE 4.8 mph /  7.7 km/h 6.4 mph /  10.3 km/h 52 % 0.0 in /  0 mm
19:27 16.2 °F /  -8.8 °C 6.3 °F /  -14.3 °C 1019.5 in /  34520.3 hPa ENE 3.2 mph /  5.1 km/h 6.4 mph /  10.3 km/h 52 % 0.0 in /  0 mm
19:32 16.1 °F /  -8.8 °C 6.5 °F /  -14.2 °C 1019.5 in /  34520.3 hPa ENE 3.2 mph /  5.1 km/h 11.3 mph /  18.2 km/h 53 % 0.0 in /  0 mm
19:37 15.9 °F /  -8.9 °C 6.9 °F /  -13.9 °C 1019.5 in /  34520.3 hPa Calm   11.3 mph /  18.2 km/h 55 % 0.0 in /  0 mm
19:42 15.7 °F /  -9.1 °C 6.9 °F /  -13.9 °C 1019.5 in /  34520.3 hPa ENE 3.2 mph /  5.1 km/h 11.3 mph /  18.2 km/h 56 % 0.0 in /  0 mm
19:47 15.6 °F /  -9.1 °C 6.6 °F /  -14.1 °C 1019.5 in /  34520.3 hPa East 4.8 mph /  7.7 km/h 6.4 mph /  10.3 km/h 55 % 0.0 in /  0 mm
19:52 15.3 °F /  -9.3 °C 6.6 °F /  -14.1 °C 1019.5 in /  34520.3 hPa ENE 1.6 mph /  2.6 km/h 6.4 mph /  10.3 km/h 56 % 0.0 in /  0 mm
19:57 15.2 °F /  -9.3 °C 6.5 °F /  -14.2 °C 1019.5 in /  34520.3 hPa ENE 1.6 mph /  2.6 km/h 6.4 mph /  10.3 km/h 56 % 0.0 in /  0 mm
20:02 15.0 °F /  -9.4 °C 6.8 °F /  -14 °C 1019.5 in /  34520.3 hPa East 1.6 mph /  2.6 km/h 6.4 mph /  10.3 km/h 58 % 0.0 in /  0 mm
20:12 14.6 °F /  -9.7 °C 6.7 °F /  -14.1 °C 1019.5 in /  34520.3 hPa ENE 3.2 mph /  5.1 km/h 4.8 mph /  7.7 km/h 59 % 0.0 in /  0 mm
20:17 14.5 °F /  -9.7 °C 6.3 °F /  -14.3 °C 1019.5 in /  34520.3 hPa ENE 1.6 mph /  2.6 km/h 3.2 mph /  5.1 km/h 58 % 0.0 in /  0 mm
20:22 14.3 °F /  -9.8 °C 6.4 °F /  -14.2 °C 1019.5 in /  34520.3 hPa NE 3.2 mph /  5.1 km/h 3.2 mph /  5.1 km/h 59 % 0.0 in /  0 mm
20:32 14.2 °F /  -9.9 °C 6.1 °F /  -14.4 °C 1019.5 in /  34520.3 hPa NE 3.2 mph /  5.1 km/h 3.2 mph /  5.1 km/h 58 % 0.0 in /  0 mm
20:37 14.2 °F /  -9.9 °C 6.1 °F /  -14.4 °C 1019.5 in /  34520.3 hPa NE 1.6 mph /  2.6 km/h 3.2 mph /  5.1 km/h 58 % 0.0 in /  0 mm
20:42 14.1 °F /  -9.9 °C 6.0 °F /  -14.4 °C 1019.5 in /  34520.3 hPa NE 3.2 mph /  5.1 km/h 3.2 mph /  5.1 km/h 58 % 0.0 in /  0 mm
20:47 13.6 °F /  -10.2 °C 6.2 °F /  -14.3 °C 1019.5 in /  34520.3 hPa NNE 4.8 mph /  7.7 km/h 4.8 mph /  7.7 km/h 61 % 0.0 in /  0 mm
20:52 13.4 °F /  -10.3 °C 6.0 °F /  -14.4 °C 1019.9 in /  34533.8 hPa NNE 1.6 mph /  2.6 km/h 3.2 mph /  5.1 km/h 61 % 0.0 in /  0 mm
20:57 13.4 °F /  -10.3 °C 6.0 °F /  -14.4 °C 1019.9 in /  34533.8 hPa Calm   4.8 mph /  7.7 km/h 61 % 0.0 in /  0 mm
21:02 13.1 °F /  -10.5 °C 6.2 °F /  -14.3 °C 1019.9 in /  34533.8 hPa Calm   4.8 mph /  7.7 km/h 63 % 0.0 in /  0 mm
21:12 12.7 °F /  -10.7 °C 6.1 °F /  -14.4 °C 1019.9 in /  34533.8 hPa Calm   4.8 mph /  7.7 km/h 64 % 0.0 in /  0 mm
21:17 12.4 °F /  -10.9 °C 6.0 °F /  -14.4 °C 1019.9 in /  34533.8 hPa Calm   1.6 mph /  2.6 km/h 65 % 0.0 in /  0 mm
21:22 12.4 °F /  -10.9 °C 6.0 °F /  -14.4 °C 1020.2 in /  34544 hPa Calm     65 % 0.0 in /  0 mm
21:32 12.1 °F /  -11.1 °C 5.9 °F /  -14.5 °C 1020.2 in /  34544 hPa Calm     66 % 0.0 in /  0 mm
21:37 11.7 °F /  -11.3 °C 6.0 °F /  -14.4 °C 1020.2 in /  34544 hPa NW 1.6 mph /  2.6 km/h 1.6 mph /  2.6 km/h 68 % 0.0 in /  0 mm
21:42 11.3 °F /  -11.5 °C 6.0 °F /  -14.4 °C 1020.5 in /  34554.1 hPa Calm   1.6 mph /  2.6 km/h 70 % 0.0 in /  0 mm
21:47 11.3 °F /  -11.5 °C 6.0 °F /  -14.4 °C 1020.5 in /  34554.1 hPa Calm   3.2 mph /  5.1 km/h 70 % 0.0 in /  0 mm
21:52 11.1 °F /  -11.6 °C 6.0 °F /  -14.4 °C 1020.5 in /  34554.1 hPa Calm   3.2 mph /  5.1 km/h 71 % 0.0 in /  0 mm
21:57 11.1 °F /  -11.6 °C 6.0 °F /  -14.4 °C 1020.5 in /  34554.1 hPa Calm     71 % 0.0 in /  0 mm
22:02 11.0 °F /  -11.7 °C 5.9 °F /  -14.5 °C 1020.5 in /  34554.1 hPa Calm     71 % 0.0 in /  0 mm
22:12 11.4 °F /  -11.4 °C 5.9 °F /  -14.5 °C 1020.5 in /  34554.1 hPa Calm     69 % 0.0 in /  0 mm
22:17 11.6 °F /  -11.3 °C 5.9 °F /  -14.5 °C 1020.5 in /  34554.1 hPa Calm     68 % 0.0 in /  0 mm
22:22 11.4 °F /  -11.4 °C 5.7 °F /  -14.6 °C 1020.5 in /  34554.1 hPa Calm     68 % 0.0 in /  0 mm
22:32 11.1 °F /  -11.6 °C 5.8 °F /  -14.6 °C 1020.5 in /  34554.1 hPa Calm     70 % 0.0 in /  0 mm
22:37 10.9 °F /  -11.7 °C 5.8 °F /  -14.6 °C 1020.5 in /  34554.1 hPa NW 1.6 mph /  2.6 km/h   71 % 0.0 in /  0 mm
22:42 10.5 °F /  -11.9 °C 5.7 °F /  -14.6 °C 1020.5 in /  34554.1 hPa WNW 3.2 mph /  5.1 km/h 3.2 mph /  5.1 km/h 72 % 0.0 in /  0 mm
22:52 10.6 °F /  -11.9 °C 5.8 °F /  -14.6 °C 1020.5 in /  34554.1 hPa WNW 1.6 mph /  2.6 km/h 3.2 mph /  5.1 km/h 72 % 0.0 in /  0 mm
22:57 10.5 °F /  -11.9 °C 5.9 °F /  -14.5 °C 1020.5 in /  34554.1 hPa NNW 1.6 mph /  2.6 km/h 3.2 mph /  5.1 km/h 73 % 0.0 in /  0 mm
23:02 10.3 °F /  -12.1 °C 5.9 °F /  -14.5 °C 1020.2 in /  34544 hPa North 1.6 mph /  2.6 km/h 3.2 mph /  5.1 km/h 74 % 0.0 in /  0 mm
23:12 10.4 °F /  -12 °C 6.0 °F /  -14.4 °C 1020.5 in /  34554.1 hPa NNW 1.6 mph /  2.6 km/h 3.2 mph /  5.1 km/h 74 % 0.0 in /  0 mm
23:22 10.4 °F /  -12 °C 6.0 °F /  -14.4 °C 1020.5 in /  34554.1 hPa NNE 1.6 mph /  2.6 km/h 3.2 mph /  5.1 km/h 74 % 0.0 in /  0 mm
23:27 10.3 °F /  -12.1 °C 5.9 °F /  -14.5 °C 1020.5 in /  34554.1 hPa NNE 4.8 mph /  7.7 km/h 4.8 mph /  7.7 km/h 74 % 0.0 in /  0 mm
23:32 10.5 °F /  -11.9 °C 5.9 °F /  -14.5 °C 1020.5 in /  34554.1 hPa North 4.8 mph /  7.7 km/h 4.8 mph /  7.7 km/h 73 % 0.0 in /  0 mm
23:37 10.8 °F /  -11.8 °C 6.0 °F /  -14.4 °C 1020.5 in /  34554.1 hPa NNE 6.4 mph /  10.3 km/h 11.3 mph /  18.2 km/h 72 % 0.0 in /  0 mm
23:42 11.1 °F /  -11.6 °C 6.0 °F /  -14.4 °C 1020.5 in /  34554.1 hPa NE 3.2 mph /  5.1 km/h 11.3 mph /  18.2 km/h 71 % 0.0 in /  0 mm
23:47 11.2 °F /  -11.6 °C 5.9 °F /  -14.5 °C 1020.5 in /  34554.1 hPa East 1.6 mph /  2.6 km/h 11.3 mph /  18.2 km/h 70 % 0.0 in /  0 mm
23:52 11.0 °F /  -11.7 °C 5.9 °F /  -14.5 °C 1020.5 in /  34554.1 hPa ENE 3.2 mph /  5.1 km/h 11.3 mph /  18.2 km/h 71 % 0.0 in /  0 mm
23:57 10.8 °F /  -11.8 °C 6.0 °F /  -14.4 °C 1020.9 in /  34567.7 hPa Calm   6.4 mph /  10.3 km/h 72 % 0.0 in /  0 mm
Meteo18
Compliments of Weather Underground - 4 mb

Script developed by  Jim McMurry - jmcmurry@mwt.net Adapted for the template by  Wim van der Kuil - Leuven-Template.eu

You find our weather info also at:

European Weather Network

Weather Underground

Equipment we use:

Weather-station
Davis Vue

Weather-program
Meteobridge

Weather-server
Raspberry PI 2 B+

Provider
1 and 1

Davis Vue

Meteobridge

Raspberry PI 2 B+

1 and 1